Time;durP1;ratioP1;P1;durP2;ratioP2;P2;SDS_P1;SDS_P2;PMS_P1;PMS_P2;Temp;Humidity;BMP_temperature;BMP_pressure;BME280_temperature;BME280_humidity;BME280_pressure;Samples;Min_cycle;Max_cycle;Signal;HPM_P1;HPM_P2
2022/06/18 00:01:00;;;;;;;3.53;0.90;;;14.50;99.90;;;;;;5015852;28;20482;-74
2022/06/18 00:03:27;;;;;;;3.15;1.10;;;14.60;99.90;;;;;;5013286;28;20026;-74
2022/06/18 00:05:57;;;;;;;3.05;0.80;;;14.70;99.90;;;;;;5014402;28;20053;-74
2022/06/18 00:08:28;;;;;;;2.77;0.90;;;14.80;99.90;;;;;;5014381;28;20038;-73
2022/06/18 00:13:47;;;;;;;6.53;0.93;;;14.80;99.90;;;;;;4984694;28;20030;-75
2022/06/18 00:16:21;;;;;;;2.92;0.75;;;15.00;99.90;;;;;;5016160;28;20378;-75
2022/06/18 00:18:49;;;;;;;7.50;1.25;;;15.00;99.90;;;;;;5015742;28;20017;-75
2022/06/18 00:21:23;;;;;;;4.65;0.80;;;15.10;99.90;;;;;;5014123;28;20022;-73
2022/06/18 00:23:51;;;;;;;2.22;0.90;;;15.10;99.90;;;;;;5014008;28;20508;-74
2022/06/18 00:26:18;;;;;;;2.63;0.70;;;15.20;99.90;;;;;;5015449;28;20025;-74
2022/06/18 00:28:46;;;;;;;4.38;1.13;;;15.10;99.90;;;;;;5013917;28;20095;-73
2022/06/18 00:31:13;;;;;;;2.75;0.80;;;15.10;99.90;;;;;;5014052;28;20033;-74
2022/06/18 00:33:41;;;;;;;3.83;1.25;;;15.20;99.90;;;;;;5015394;28;20532;-74
2022/06/18 00:36:15;;;;;;;1.80;0.85;;;15.40;99.90;;;;;;5015219;28;20208;-74
2022/06/18 00:38:45;;;;;;;2.65;0.85;;;15.40;99.90;;;;;;5015295;28;20026;-74
2022/06/18 00:41:32;;;;;;;4.55;1.20;;;15.60;99.90;;;;;;5015087;28;20032;-73
2022/06/18 00:44:31;;;;;;;2.10;0.75;;;15.70;99.90;;;;;;5013764;28;20056;-73
2022/06/18 00:47:14;;;;;;;5.18;1.08;;;16.00;99.90;;;;;;5013753;28;20022;-74
2022/06/18 00:50:00;;;;;;;3.90;0.98;;;16.00;99.90;;;;;;5013680;28;20028;-74
2022/06/18 00:52:42;;;;;;;2.15;0.80;;;16.00;99.90;;;;;;5015020;28;20133;-73
2022/06/18 00:55:23;;;;;;;4.20;0.95;;;16.00;99.90;;;;;;5014854;28;20022;-73
2022/06/18 00:57:53;;;;;;;;;;;16.10;99.90;;;;;;5015148;28;20042;-73
2022/06/18 01:00:29;;;;;;;4.50;1.10;;;16.40;99.90;;;;;;5014737;28;20424;-73
2022/06/18 01:02:56;;;;;;;9.77;1.70;;;16.70;99.90;;;;;;5013305;28;20394;-73
2022/06/18 01:05:27;;;;;;;6.18;1.20;;;16.70;99.90;;;;;;5014594;28;20101;-73
2022/06/18 01:08:16;;;;;;;4.18;1.08;;;16.80;99.90;;;;;;5013430;28;20163;-74
2022/06/18 01:10:51;;;;;;;4.22;0.90;;;16.60;99.90;;;;;;5014507;28;20510;-73
2022/06/18 01:13:24;;;;;;;5.50;1.55;;;16.40;99.90;;;;;;5014721;28;20030;-73
2022/06/18 01:15:54;;;;;;;5.00;1.20;;;16.40;99.90;;;;;;5012050;28;20021;-75
2022/06/18 01:18:22;;;;;;;3.78;1.20;;;16.40;99.90;;;;;;5014754;28;20032;-73
2022/06/18 01:20:56;;;;;;;7.40;1.98;;;16.30;99.90;;;;;;5014338;28;20034;-74
2022/06/18 01:24:12;;;;;;;6.97;1.60;;;16.40;99.90;;;;;;5013009;28;20079;-73
2022/06/18 01:26:39;;;;;;;5.15;1.67;;;16.60;99.90;;;;;;5008561;28;20101;-73
2022/06/18 01:29:07;;;;;;;5.30;1.30;;;16.60;99.90;;;;;;5014226;28;20438;-73
2022/06/18 01:31:35;;;;;;;7.63;1.98;;;16.60;99.90;;;;;;5014239;28;20022;-75
2022/06/18 01:34:03;;;;;;;5.57;1.45;;;16.80;99.90;;;;;;5012805;28;20026;-74
2022/06/18 01:36:35;;;;;;;6.10;1.85;;;17.00;99.90;;;;;;5012722;28;20390;-74
2022/06/18 01:39:04;;;;;;;6.93;1.48;;;17.10;99.90;;;;;;5014158;28;20026;-73
2022/06/18 01:42:00;;;;;;;4.72;1.30;;;17.20;99.90;;;;;;5012785;28;20026;-73
2022/06/18 01:44:39;;;;;;;6.38;1.40;;;17.60;99.90;;;;;;4998286;28;20053;-73
2022/06/18 01:47:21;;;;;;;5.25;1.35;;;17.70;99.90;;;;;;5012580;28;20029;-73
2022/06/18 01:50:20;;;;;;;6.22;1.40;;;17.50;99.90;;;;;;5014164;28;20022;-74
2022/06/18 01:52:55;;;;;;;7.75;1.67;;;17.50;99.90;;;;;;5009609;28;20036;-74
2022/06/18 01:55:38;;;;;;;6.57;1.50;;;17.30;99.90;;;;;;5012598;28;20037;-74
2022/06/18 01:58:13;;;;;;;4.13;1.20;;;17.40;99.90;;;;;;5012296;28;20108;-73
2022/06/18 02:00:42;;;;;;;5.80;1.17;;;17.90;99.90;;;;;;5013807;28;20014;-73
2022/06/18 02:03:09;;;;;;;6.20;1.55;;;18.00;99.90;;;;;;5012207;28;20026;-73
2022/06/18 02:05:37;;;;;;;5.75;1.00;;;17.90;99.90;;;;;;5013873;28;20331;-73
2022/06/18 02:08:07;;;;;;;7.75;1.80;;;17.80;99.90;;;;;;5012219;28;20032;-74
2022/06/18 02:10:50;;;;;;;6.20;1.33;;;17.50;99.90;;;;;;5013603;28;20026;-73
2022/06/18 02:13:19;;;;;;;5.70;1.60;;;17.50;99.90;;;;;;5013559;28;20096;-74
2022/06/18 02:15:47;;;;;;;6.35;1.40;;;17.40;99.90;;;;;;5012138;28;20036;-74
2022/06/18 02:18:17;;;;;;;5.35;1.50;;;17.60;99.90;;;;;;5012351;28;20033;-74
2022/06/18 02:20:52;;;;;;;7.55;1.60;;;17.50;99.90;;;;;;5013431;28;20076;-73
2022/06/18 02:23:22;;;;;;;8.75;1.45;;;17.50;99.90;;;;;;5011916;28;20021;-73
2022/06/18 02:25:49;;;;;;;4.73;1.33;;;17.50;99.90;;;;;;5012960;28;20045;-69
2022/06/18 02:28:24;;;;;;;6.75;1.20;;;17.50;99.90;;;;;;5013227;28;20492;-70
2022/06/18 02:30:59;;;;;;;6.32;2.05;;;17.40;99.90;;;;;;5013497;28;20067;-71
2022/06/18 02:33:43;;;;;;;5.40;1.52;;;17.20;99.90;;;;;;5013066;28;20159;-71
2022/06/18 02:36:29;;;;;;;6.78;1.45;;;17.20;99.90;;;;;;5013176;28;20482;-74
2022/06/18 02:39:11;;;;;;;4.18;1.25;;;17.30;99.90;;;;;;5013187;28;20432;-73
2022/06/18 02:41:41;;;;;;;6.30;1.50;;;17.20;99.90;;;;;;5013519;28;20026;-74
2022/06/18 02:44:09;;;;;;;;;;;17.40;99.90;;;;;;5013443;28;20490;-73
2022/06/18 02:46:37;;;;;;;4.97;1.20;;;17.40;99.90;;;;;;5011888;28;20410;-73
2022/06/18 02:49:06;;;;;;;6.53;2.10;;;17.30;99.90;;;;;;5013411;28;20017;-73
2022/06/18 02:51:36;;;;;;;7.25;1.33;;;17.60;99.90;;;;;;5011866;28;20104;-73
2022/06/18 02:54:04;;;;;;;5.75;1.17;;;17.80;99.90;;;;;;5011643;28;20033;-71
2022/06/18 02:56:32;;;;;;;7.82;1.27;;;17.80;99.90;;;;;;5013051;28;20029;-72
2022/06/18 02:58:59;;;;;;;5.28;1.23;;;18.00;99.90;;;;;;5012695;28;20388;-72
2022/06/18 03:01:29;;;;;;;6.20;1.20;;;18.10;99.90;;;;;;5013097;28;20072;-72
2022/06/18 03:03:58;;;;;;;6.28;1.00;;;17.90;99.90;;;;;;5011536;28;20121;-72
2022/06/18 03:06:27;;;;;;;7.22;1.30;;;17.80;99.90;;;;;;5011589;28;20060;-72
2022/06/18 03:08:57;;;;;;;6.85;1.55;;;17.80;99.90;;;;;;5012844;28;20022;-72
2022/06/18 03:14:13;;;;;;;6.80;1.50;;;17.80;99.90;;;;;;5013106;28;20033;-73
2022/06/18 03:16:41;;;;;;;4.65;1.05;;;17.60;99.90;;;;;;5011698;28;20030;-73
2022/06/18 03:19:13;;;;;;;8.20;2.28;;;17.60;99.90;;;;;;5011485;28;20037;-72
2022/06/18 03:21:51;;;;;;;5.88;1.85;;;17.50;99.90;;;;;;5012891;28;20033;-72
2022/06/18 03:24:18;;;;;;;7.18;1.80;;;17.70;99.90;;;;;;5011387;28;20037;-70
2022/06/18 03:26:45;;;;;;;3.38;0.88;;;17.80;99.90;;;;;;5012783;28;20030;-72
2022/06/18 03:29:13;;;;;;;5.32;1.20;;;17.80;99.90;;;;;;5012693;28;20026;-73
2022/06/18 03:31:40;;;;;;;5.10;1.23;;;17.80;99.90;;;;;;5011517;28;20112;-73
2022/06/18 03:34:07;;;;;;;8.40;1.48;;;17.70;99.90;;;;;;5012582;28;20391;-70
2022/06/18 03:36:35;;;;;;;7.43;1.30;;;17.50;99.90;;;;;;5012639;28;20113;-73
2022/06/18 03:39:03;;;;;;;10.85;2.13;;;17.50;99.90;;;;;;5014726;28;20033;-71
2022/06/18 03:41:30;;;;;;;6.07;1.50;;;17.70;99.90;;;;;;5016364;28;20036;-73
2022/06/18 03:43:58;;;;;;;6.95;1.70;;;17.70;99.90;;;;;;5016323;28;20125;-73
2022/06/18 03:46:25;;;;;;;5.65;1.30;;;17.80;99.90;;;;;;5016213;28;20014;-73
2022/06/18 03:49:29;;;;;;;7.15;1.90;;;17.80;99.90;;;;;;5016110;28;20032;-73
2022/06/18 03:51:58;;;;;;;5.50;1.55;;;18.10;99.90;;;;;;5016029;28;20097;-73
2022/06/18 03:54:25;;;;;;;4.70;1.45;;;18.20;99.90;;;;;;5015840;28;20025;-72
2022/06/18 03:56:53;;;;;;;8.73;1.70;;;18.30;99.90;;;;;;5015977;28;20030;-73
2022/06/18 03:59:22;;;;;;;4.65;1.30;;;18.20;99.90;;;;;;5015648;28;20054;-73
2022/06/18 04:01:50;;;;;;;7.35;1.30;;;18.00;99.90;;;;;;5014517;28;20068;-73
2022/06/18 04:04:17;;;;;;;8.57;2.10;;;17.90;99.90;;;;;;5014069;28;20037;-72
2022/06/18 04:06:45;;;;;;;8.88;1.65;;;17.70;99.90;;;;;;5015855;28;20394;-73
2022/06/18 04:09:13;;;;;;;7.93;1.40;;;17.50;99.90;;;;;;5015804;28;20556;-73
2022/06/18 04:11:41;;;;;;;8.60;1.90;;;17.70;99.90;;;;;;5015673;28;20084;-72
2022/06/18 04:14:08;;;;;;;6.88;1.80;;;17.90;99.90;;;;;;5016218;28;20030;-72
2022/06/18 04:16:36;;;;;;;6.10;1.60;;;17.90;99.90;;;;;;5015550;28;20021;-73
2022/06/18 04:19:03;;;;;;;7.70;1.48;;;17.70;99.90;;;;;;5015622;28;20474;-73
2022/06/18 04:21:30;;;;;;;6.65;1.65;;;17.60;99.90;;;;;;5014164;28;20025;-73
2022/06/18 04:23:58;;;;;;;8.68;1.63;;;17.70;99.90;;;;;;5015472;28;20113;-73
2022/06/18 04:26:25;;;;;;;4.97;1.73;;;17.80;99.90;;;;;;5015402;28;20022;-73
2022/06/18 04:28:53;;;;;;;4.85;1.65;;;17.80;99.90;;;;;;5015421;28;20037;-72
2022/06/18 04:31:20;;;;;;;7.20;1.98;;;17.60;99.90;;;;;;5015282;28;20029;-72
2022/06/18 04:33:48;;;;;;;11.60;2.22;;;17.60;99.90;;;;;;5015278;28;20478;-72
2022/06/18 04:36:32;;;;;;;5.57;1.80;;;17.60;99.90;;;;;;5013892;28;20048;-71
2022/06/18 04:38:59;;;;;;;9.38;1.88;;;17.70;99.90;;;;;;5015595;28;20382;-72
2022/06/18 04:41:27;;;;;;;8.38;2.20;;;17.50;99.90;;;;;;5013758;28;20033;-72
2022/06/18 04:43:55;;;;;;;6.35;1.58;;;17.40;99.90;;;;;;5015003;28;20026;-71
2022/06/18 04:46:22;;;;;;;8.13;1.98;;;17.20;99.90;;;;;;5014858;28;20025;-73
2022/06/18 04:48:50;;;;;;;5.95;1.58;;;17.30;99.90;;;;;;5014669;28;20497;-73
2022/06/18 04:51:18;;;;;;;7.13;1.83;;;17.40;99.90;;;;;;5014913;28;20022;-73
2022/06/18 04:53:46;;;;;;;7.90;1.75;;;17.40;99.90;;;;;;5013568;28;20036;-73
2022/06/18 04:56:13;;;;;;;10.10;1.90;;;17.50;99.90;;;;;;5013479;28;20524;-72
2022/06/18 04:58:41;;;;;;;10.25;1.60;;;17.50;99.90;;;;;;5013180;28;20096;-72
2022/06/18 05:01:13;;;;;;;9.98;1.88;;;17.60;99.90;;;;;;5014668;28;20054;-73
2022/06/18 05:03:40;;;;;;;7.13;1.85;;;17.50;99.90;;;;;;5014602;28;20026;-72
2022/06/18 05:06:08;;;;;;;8.73;1.90;;;17.30;99.90;;;;;;5014575;28;20018;-73
2022/06/18 05:08:35;;;;;;;5.03;1.48;;;17.20;99.90;;;;;;5014584;28;20091;-73
2022/06/18 05:11:03;;;;;;;5.97;1.27;;;17.10;99.90;;;;;;5014904;28;20033;-73
2022/06/18 05:13:31;;;;;;;4.53;1.27;;;16.90;99.90;;;;;;5014490;28;20026;-73
2022/06/18 05:15:59;;;;;;;5.20;1.83;;;16.80;99.90;;;;;;5014431;28;20410;-73
2022/06/18 05:18:32;;;;;;;7.05;1.60;;;16.70;99.90;;;;;;5014300;28;20359;-74
2022/06/18 05:20:59;;;;;;;3.85;1.17;;;16.70;99.90;;;;;;5013130;28;20022;-73
2022/06/18 05:23:28;;;;;;;5.95;1.33;;;16.70;99.90;;;;;;5012806;28;20029;-73
2022/06/18 05:26:00;;;;;;;7.22;1.70;;;16.70;99.90;;;;;;5014255;28;20486;-73
2022/06/18 05:28:27;;;;;;;6.40;1.85;;;16.70;99.90;;;;;;5014261;28;20097;-73
2022/06/18 05:30:55;;;;;;;6.47;1.45;;;16.70;99.90;;;;;;5012840;28;20029;-73
2022/06/18 05:33:23;;;;;;;6.85;1.73;;;16.80;99.90;;;;;;5014149;28;20032;-73
2022/06/18 05:35:50;;;;;;;6.40;1.77;;;16.80;99.90;;;;;;5014180;28;20029;-73
2022/06/18 05:38:20;;;;;;;8.95;2.00;;;16.80;99.90;;;;;;5012672;28;20026;-73
2022/06/18 05:40:48;;;;;;;7.90;1.45;;;16.80;99.90;;;;;;5014103;28;20053;-74
2022/06/18 05:43:15;;;;;;;5.78;1.75;;;16.80;99.90;;;;;;5013795;28;20023;-72
2022/06/18 05:45:44;;;;;;;5.70;1.38;;;16.80;99.90;;;;;;5013862;28;20101;-72
2022/06/18 05:48:12;;;;;;;6.95;1.98;;;16.70;99.90;;;;;;5013858;28;20022;-73
2022/06/18 05:50:39;;;;;;;7.78;1.58;;;16.60;99.90;;;;;;5013824;28;20474;-73
2022/06/18 05:53:07;;;;;;;8.90;2.15;;;16.60;99.90;;;;;;5012370;28;20088;-73
2022/06/18 05:55:34;;;;;;;7.30;1.50;;;16.60;99.90;;;;;;5013707;28;20091;-73
2022/06/18 05:58:02;;;;;;;7.88;1.98;;;16.50;99.90;;;;;;5013329;28;20093;-73
2022/06/18 06:00:34;;;;;;;8.55;1.48;;;16.50;99.90;;;;;;5013337;28;20092;-73
2022/06/18 06:03:02;;;;;;;7.30;1.85;;;16.40;99.90;;;;;;5013732;28;20029;-73
2022/06/18 06:05:29;;;;;;;6.90;2.13;;;16.40;99.90;;;;;;5012304;28;20022;-73
2022/06/18 06:07:57;;;;;;;7.70;1.60;;;16.40;99.90;;;;;;5013577;28;20018;-73
2022/06/18 06:13:17;;;;;;;6.57;1.50;;;16.20;99.90;;;;;;5013859;28;20029;-74
2022/06/18 06:15:44;;;;;;;5.75;1.60;;;16.20;99.90;;;;;;5013914;28;20072;-73
2022/06/18 06:18:14;;;;;;;7.80;1.60;;;16.20;99.90;;;;;;5013368;28;20026;-74
2022/06/18 06:20:43;;;;;;;6.50;1.52;;;16.20;99.90;;;;;;5013499;28;20056;-74
2022/06/18 06:23:12;;;;;;;7.60;1.70;;;16.20;99.90;;;;;;5013308;28;20076;-74
2022/06/18 06:25:41;;;;;;;8.93;1.70;;;16.10;99.90;;;;;;5012079;28;20318;-74
2022/06/18 06:28:12;;;;;;;5.15;1.67;;;16.10;99.90;;;;;;5013514;28;20414;-74
2022/06/18 06:30:39;;;;;;;6.20;1.73;;;16.00;99.90;;;;;;5013651;28;20072;-75
2022/06/18 06:33:07;;;;;;;6.13;1.55;;;15.90;99.90;;;;;;5013275;28;20030;-74
2022/06/18 06:35:34;;;;;;;7.65;1.30;;;15.90;99.90;;;;;;5013265;28;20644;-75
2022/06/18 06:38:02;;;;;;;8.65;1.58;;;15.80;99.90;;;;;;5013607;28;20030;-74
2022/06/18 06:40:31;;;;;;;8.05;1.45;;;15.80;99.90;;;;;;5013140;28;20160;-74
2022/06/18 06:42:59;;;;;;;7.07;1.60;;;15.70;99.90;;;;;;5013123;28;20018;-74
2022/06/18 06:45:30;;;;;;;6.13;1.73;;;15.70;99.90;;;;;;5013045;28;20022;-74
2022/06/18 06:47:58;;;;;;;8.55;1.95;;;15.60;99.90;;;;;;5013101;28;20478;-73
2022/06/18 06:50:27;;;;;;;6.05;1.85;;;15.50;99.90;;;;;;5013339;28;20529;-73
2022/06/18 06:52:55;;;;;;;5.25;1.40;;;15.50;99.90;;;;;;5013089;28;20111;-73
2022/06/18 06:58:19;;;;;;;6.70;1.92;;;15.30;99.90;;;;;;5013252;28;20115;-72
2022/06/18 07:00:52;;;;;;;4.20;1.65;;;15.30;99.90;;;;;;5011666;28;20036;-72
2022/06/18 07:03:24;;;;;;;8.40;1.83;;;15.30;99.90;;;;;;5013015;28;20494;-74
2022/06/18 07:05:52;;;;;;;10.23;2.10;;;15.30;99.90;;;;;;5013161;28;20100;-71
2022/06/18 07:08:19;;;;;;;6.30;1.95;;;15.30;99.90;;;;;;5012916;28;20020;-72
2022/06/18 07:10:49;;;;;;;4.60;1.50;;;15.40;99.90;;;;;;5012950;28;20018;-71
2022/06/18 07:13:18;;;;;;;7.63;2.10;;;15.40;99.90;;;;;;5015668;28;20022;-71
2022/06/18 07:15:46;;;;;;;5.90;1.60;;;15.30;99.90;;;;;;5016736;28;20057;-71
2022/06/18 07:18:20;;;;;;;4.88;1.48;;;15.40;99.90;;;;;;5015357;28;20040;-70
2022/06/18 07:20:48;;;;;;;6.82;2.05;;;15.40;99.90;;;;;;5016747;28;20393;-70
2022/06/18 07:23:15;;;;;;;7.63;2.05;;;15.40;99.90;;;;;;5015255;28;20469;-71
2022/06/18 07:25:43;;;;;;;9.02;2.30;;;15.40;99.90;;;;;;5016496;28;20022;-71
2022/06/18 07:28:11;;;;;;;11.25;2.40;;;15.40;99.90;;;;;;5016456;28;20028;-70
2022/06/18 07:30:39;;;;;;;6.22;2.20;;;15.40;99.90;;;;;;5016587;28;20029;-71
2022/06/18 07:33:07;;;;;;;7.47;2.38;;;15.40;99.90;;;;;;5016442;28;20072;-71
2022/06/18 07:35:36;;;;;;;8.32;2.72;;;15.30;99.90;;;;;;5016383;28;20080;-71
2022/06/18 07:38:04;;;;;;;8.50;3.15;;;15.40;99.90;;;;;;5016292;28;20030;-71
2022/06/18 07:40:44;;;;;;;7.88;3.25;;;15.30;99.90;;;;;;5016301;28;20018;-71
2022/06/18 07:43:36;;;;;;;8.80;2.88;;;15.30;99.90;;;;;;5016250;28;20367;-72
2022/06/18 07:46:05;;;;;;;8.23;3.08;;;15.30;99.90;;;;;;5010718;28;20040;-72
2022/06/18 07:48:33;;;;;;;7.38;2.22;;;15.20;99.90;;;;;;5016655;28;20076;-72
2022/06/18 07:51:01;;;;;;;8.55;3.05;;;15.10;99.90;;;;;;5014793;28;20485;-73
2022/06/18 07:53:29;;;;;;;9.23;3.97;;;15.10;99.90;;;;;;5014953;28;20089;-73
2022/06/18 07:55:56;;;;;;;9.18;3.45;;;15.00;99.90;;;;;;5016060;28;20033;-73
2022/06/18 07:58:26;;;;;;;7.78;2.95;;;14.90;99.90;;;;;;5015984;28;20065;-72
2022/06/18 08:00:55;;;;;;;8.25;3.63;;;14.80;99.90;;;;;;5016057;28;20026;-73
2022/06/18 08:03:24;;;;;;;9.77;2.78;;;14.70;99.90;;;;;;5015894;28;20498;-71
2022/06/18 08:05:54;;;;;;;8.10;2.67;;;14.60;99.90;;;;;;5015845;28;20014;-71
2022/06/18 08:08:21;;;;;;;8.73;3.47;;;14.60;99.90;;;;;;5015842;28;20014;-72
2022/06/18 08:10:52;;;;;;;10.00;5.25;;;14.70;99.90;;;;;;5016074;28;20544;-72
2022/06/18 08:13:20;;;;;;;10.48;5.10;;;14.60;99.90;;;;;;5015997;28;20482;-72
2022/06/18 08:15:48;;;;;;;8.13;4.20;;;14.70;99.90;;;;;;5015929;28;20029;-72
2022/06/18 08:18:15;;;;;;;7.88;4.20;;;14.70;99.90;;;;;;5015598;28;20038;-72
2022/06/18 08:20:44;;;;;;;12.43;4.47;;;14.80;99.90;;;;;;5015545;28;20058;-72
2022/06/18 08:23:12;;;;;;;13.05;4.65;;;14.70;99.90;;;;;;5015388;28;20384;-71
2022/06/18 08:25:42;;;;;;;8.20;3.83;;;14.70;99.90;;;;;;5015415;28;20014;-71
2022/06/18 08:28:11;;;;;;;12.10;4.55;;;14.70;99.90;;;;;;5015524;28;20025;-70
2022/06/18 08:30:41;;;;;;;9.02;3.13;;;14.70;99.90;;;;;;5015332;28;20022;-70
2022/06/18 08:33:09;;;;;;;10.63;3.08;;;14.70;99.90;;;;;;5013897;28;20398;-72
2022/06/18 08:35:38;;;;;;;7.28;3.42;;;14.70;99.90;;;;;;5015276;28;20026;-71
2022/06/18 08:38:07;;;;;;;12.55;4.13;;;14.70;99.90;;;;;;5015211;28;20086;-71
2022/06/18 08:40:46;;;;;;;15.32;5.88;;;14.80;99.90;;;;;;5013945;28;20034;-70
2022/06/18 08:43:26;;;;;;;8.93;3.90;;;14.70;99.90;;;;;;5015162;28;20101;-70
2022/06/18 08:46:36;;;;;;;8.60;4.05;;;14.70;99.90;;;;;;5013791;28;20386;-71
2022/06/18 08:49:14;;;;;;;6.32;2.92;;;14.80;99.90;;;;;;5014562;28;20036;-69
2022/06/18 08:52:12;;;;;;;7.90;3.40;;;14.80;99.90;;;;;;5015194;28;20052;-71
2022/06/18 08:55:07;;;;;;;9.80;3.83;;;14.80;99.90;;;;;;5015135;28;20032;-70
2022/06/18 08:57:50;;;;;;;12.07;4.55;;;14.90;99.90;;;;;;5014823;28;20034;-70
2022/06/18 09:00:37;;;;;;;11.02;3.90;;;14.90;99.90;;;;;;5015046;28;20152;-70
2022/06/18 09:03:21;;;;;;;7.97;3.45;;;14.90;99.90;;;;;;5013478;28;20061;-70
2022/06/18 09:06:14;;;;;;;10.55;4.10;;;14.90;99.90;;;;;;5013700;28;20022;-70
2022/06/18 09:09:02;;;;;;;7.10;3.20;;;14.80;99.90;;;;;;5010416;28;20034;-70
2022/06/18 09:12:06;;;;;;;13.30;4.75;;;14.80;99.90;;;;;;5014996;28;20474;-71
2022/06/18 09:14:59;;;;;;;7.28;2.60;;;14.80;99.90;;;;;;5013322;28;20037;-70
2022/06/18 09:17:44;;;;;;;9.43;2.75;;;14.70;99.90;;;;;;5014867;28;20049;-71
2022/06/18 09:20:20;;;;;;;12.38;3.50;;;14.60;99.90;;;;;;5013223;28;20076;-70
2022/06/18 09:22:52;;;;;;;9.77;3.20;;;14.60;99.90;;;;;;5014505;28;20034;-71
2022/06/18 09:25:22;;;;;;;11.45;4.00;;;14.50;99.90;;;;;;5014435;28;20448;-73
2022/06/18 09:28:05;;;;;;;7.35;4.20;;;14.50;99.90;;;;;;5014318;28;20040;-72
2022/06/18 09:30:38;;;;;;;8.75;4.53;;;14.40;99.90;;;;;;5014240;28;20110;-69
2022/06/18 09:33:13;;;;;;;7.43;4.38;;;14.40;99.90;;;;;;5014125;28;20398;-71
2022/06/18 09:35:49;;;;;;;10.88;5.32;;;14.40;99.90;;;;;;5013405;28;20052;-71
2022/06/18 09:38:26;;;;;;;10.60;4.28;;;14.30;99.90;;;;;;5012796;28;20053;-71
2022/06/18 09:41:04;;;;;;;9.98;5.18;;;14.40;99.90;;;;;;5014281;28;20026;-73
2022/06/18 09:43:49;;;;;;;12.20;5.50;;;14.30;99.90;;;;;;5014513;28;20099;-70
2022/06/18 09:46:24;;;;;;;8.95;5.43;;;14.40;99.90;;;;;;5014603;28;20052;-71
2022/06/18 09:48:52;;;;;;;13.32;5.38;;;14.30;99.90;;;;;;5014046;28;20025;-70
2022/06/18 09:52:11;;;;;;;10.55;5.30;;;14.30;99.90;;;;;;5013944;28;20031;-69
2022/06/18 09:54:54;;;;;;;13.55;6.25;;;14.30;99.90;;;;;;5013429;28;20042;-70
2022/06/18 09:57:26;;;;;;;11.02;5.90;;;14.30;99.90;;;;;;5013667;28;20128;-69
2022/06/18 10:00:15;;;;;;;14.77;5.30;;;14.30;99.90;;;;;;5012535;28;20035;-71
2022/06/18 10:03:11;;;;;;;10.18;4.90;;;14.30;99.90;;;;;;5011974;28;20092;-70
2022/06/18 10:08:38;;;;;;;11.23;4.88;;;14.10;99.90;;;;;;5013726;28;20033;-70
2022/06/18 10:11:09;;;;;;;8.98;4.85;;;14.00;99.90;;;;;;5013636;28;20026;-69
2022/06/18 10:13:48;;;;;;;10.32;6.72;;;14.00;99.90;;;;;;5013915;28;20080;-70
2022/06/18 10:16:46;;;;;;;14.30;7.97;;;13.90;99.90;;;;;;5013735;28;20394;-70
2022/06/18 10:19:25;;;;;;;19.55;8.82;;;13.80;99.90;;;;;;4992892;28;20103;-72
2022/06/18 10:22:04;;;;;;;12.40;7.40;;;13.80;99.90;;;;;;5013589;28;20071;-70
2022/06/18 10:24:52;;;;;;;14.68;6.22;;;13.70;99.90;;;;;;5013490;28;20429;-69
2022/06/18 10:27:33;;;;;;;12.25;6.07;;;13.60;99.90;;;;;;5013696;28;20022;-69
2022/06/18 10:30:12;;;;;;;9.23;5.53;;;13.50;99.90;;;;;;5013397;28;20470;-70
2022/06/18 10:32:47;;;;;;;11.75;5.93;;;13.40;99.90;;;;;;5013422;28;20038;-69
2022/06/18 10:35:54;;;;;;;10.40;5.35;;;13.40;99.90;;;;;;5012030;28;20021;-70
2022/06/18 10:38:48;;;;;;;10.02;4.45;;;13.30;99.90;;;;;;5012050;28;20390;-71
2022/06/18 10:41:56;;;;;;;10.35;4.13;;;13.30;99.90;;;;;;5013308;28;20026;-70
2022/06/18 10:44:26;;;;;;;8.05;3.72;;;13.20;99.90;;;;;;5013522;28;20382;-70
2022/06/18 10:47:19;;;;;;;11.38;6.35;;;13.10;99.90;;;;;;5014228;28;20097;-71
2022/06/18 10:49:48;;;;;;;10.07;5.80;;;13.10;99.90;;;;;;5016031;28;20021;-71
2022/06/18 10:52:24;;;;;;;10.88;5.53;;;13.10;99.90;;;;;;5019686;28;20441;-71
2022/06/18 10:55:06;;;;;;;9.13;4.85;;;13.00;99.90;;;;;;5019656;28;20470;-72
2022/06/18 10:57:33;;;;;;;8.85;5.22;;;13.00;99.90;;;;;;5019597;28;20049;-71
2022/06/18 11:00:25;;;;;;;10.07;5.28;;;12.90;99.90;;;;;;5019872;28;20439;-70
2022/06/18 11:02:59;;;;;;;8.60;4.40;;;12.90;99.90;;;;;;5019558;28;20030;-70
2022/06/18 11:05:36;;;;;;;8.88;4.18;;;12.80;99.90;;;;;;5019615;28;20024;-71
2022/06/18 11:08:18;;;;;;;7.97;4.00;;;12.80;99.90;;;;;;5019743;28;20088;-70
2022/06/18 11:10:53;;;;;;;8.35;4.10;;;12.70;99.90;;;;;;5019862;28;20029;-70
2022/06/18 11:13:37;;;;;;;9.65;4.47;;;12.70;99.90;;;;;;5019514;28;20536;-71
2022/06/18 11:16:24;;;;;;;9.63;4.45;;;12.70;99.90;;;;;;5019439;28;20489;-69
2022/06/18 11:18:59;;;;;;;9.13;3.83;;;12.70;99.90;;;;;;5019738;28;20026;-70
2022/06/18 11:21:34;;;;;;;8.93;3.72;;;12.60;99.90;;;;;;5019464;28;20040;-70
2022/06/18 11:24:44;;;;;;;6.03;3.08;;;12.60;99.90;;;;;;5019359;28;20033;-70
2022/06/18 11:27:16;;;;;;;7.70;3.47;;;12.50;99.90;;;;;;5015247;28;20099;-71
2022/06/18 11:29:52;;;;;;;6.53;3.20;;;12.50;99.90;;;;;;5019320;28;20017;-71
2022/06/18 11:32:32;;;;;;;10.60;4.43;;;12.40;99.90;;;;;;5019316;28;20025;-70
2022/06/18 11:35:19;;;;;;;8.65;3.28;;;12.40;99.90;;;;;;5017914;28;20030;-71
2022/06/18 11:37:57;;;;;;;5.90;3.28;;;12.30;99.90;;;;;;5018940;28;20030;-71
2022/06/18 11:40:25;;;;;;;4.40;2.97;;;12.30;99.90;;;;;;5018035;28;20084;-71
2022/06/18 11:43:39;;;;;;;7.65;3.30;;;12.20;99.90;;;;;;5019152;28;20026;-71
2022/06/18 11:46:21;;;;;;;7.18;3.20;;;12.20;99.90;;;;;;4978101;28;20038;-70
2022/06/18 11:49:17;;;;;;;9.23;3.60;;;12.20;99.90;;;;;;5018836;28;20038;-70
2022/06/18 11:52:25;;;;;;;7.38;3.95;;;12.10;99.90;;;;;;5019114;28;20058;-70
2022/06/18 11:55:14;;;;;;;8.50;4.30;;;12.10;99.90;;;;;;5017902;28;20029;-70
2022/06/18 11:58:08;;;;;;;7.22;4.10;;;12.10;99.90;;;;;;5018891;28;20046;-70
2022/06/18 12:00:52;;;;;;;6.53;3.55;;;12.20;99.90;;;;;;5015393;28;20452;-71
2022/06/18 12:03:35;;;;;;;7.57;4.28;;;12.10;99.90;;;;;;5015914;28;20100;-72
2022/06/18 12:06:26;;;;;;;7.30;3.67;;;12.10;99.90;;;;;;5016308;28;20030;-72
2022/06/18 12:08:54;;;;;;;8.38;3.38;;;12.00;99.90;;;;;;5014507;28;20057;-71
2022/06/18 12:11:51;;;;;;;6.82;2.83;;;12.10;99.90;;;;;;5015840;28;20025;-71
2022/06/18 12:14:44;;;;;;;7.05;3.08;;;12.00;99.90;;;;;;5016485;28;20058;-71
2022/06/18 12:17:24;;;;;;;6.85;3.50;;;12.00;99.90;;;;;;4997729;28;20038;-71
2022/06/18 12:19:57;;;;;;;5.55;2.70;;;11.90;99.90;;;;;;5015654;28;20437;-71
2022/06/18 12:22:33;;;;;;;6.95;3.13;;;11.90;99.90;;;;;;5015541;28;20036;-70
2022/06/18 12:25:22;;;;;;;6.65;3.42;;;11.90;99.90;;;;;;5014051;28;20030;-71
2022/06/18 12:28:09;;;;;;;5.57;2.72;;;11.90;99.90;;;;;;5015821;28;20022;-71
2022/06/18 12:31:02;;;;;;;5.63;2.90;;;11.90;99.90;;;;;;5015621;28;20512;-71
2022/06/18 12:33:45;;;;;;;5.30;2.78;;;11.90;99.90;;;;;;5013998;28;20026;-71
2022/06/18 12:36:27;;;;;;;5.43;3.08;;;11.80;99.90;;;;;;5014110;28;20033;-70
2022/06/18 12:39:13;;;;;;;5.32;3.13;;;11.80;99.90;;;;;;5015645;28;20044;-70
2022/06/18 12:41:43;;;;;;;5.75;2.92;;;11.80;99.90;;;;;;5015330;28;20089;-71
2022/06/18 12:44:28;;;;;;;;;;;11.80;99.90;;;;;;5015693;28;20022;-72
2022/06/18 12:47:13;;;;;;;4.75;3.08;;;11.70;99.90;;;;;;5015375;28;20000;-71
2022/06/18 12:49:55;;;;;;;4.30;3.05;;;11.70;99.90;;;;;;5015412;28;20018;-72
2022/06/18 12:52:30;;;;;;;5.85;2.80;;;11.70;99.90;;;;;;5015095;28;20022;-71
2022/06/18 12:55:12;;;;;;;5.13;2.88;;;11.70;99.90;;;;;;5015531;28;20018;-71
2022/06/18 12:58:14;;;;;;;7.72;3.53;;;11.60;99.90;;;;;;5014932;28;20042;-71
2022/06/18 13:00:55;;;;;;;5.28;2.70;;;11.70;99.90;;;;;;5013540;28;20394;-71
2022/06/18 13:03:43;;;;;;;8.45;2.92;;;11.70;99.90;;;;;;5014814;28;20022;-71
2022/06/18 13:06:24;;;;;;;5.20;3.50;;;11.70;99.90;;;;;;5014749;28;20115;-71
2022/06/18 13:09:02;;;;;;;8.23;3.40;;;11.60;99.90;;;;;;5013393;28;20026;-71
2022/06/18 13:12:00;;;;;;;5.47;2.88;;;11.70;99.90;;;;;;5014846;28;20014;-71
2022/06/18 13:14:42;;;;;;;8.60;3.30;;;11.60;99.90;;;;;;5013327;28;20367;-71
2022/06/18 13:17:23;;;;;;;5.15;2.78;;;11.60;99.90;;;;;;5014834;28;20478;-71
2022/06/18 13:20:03;;;;;;;5.03;2.80;;;11.60;99.90;;;;;;5013195;28;20026;-71
2022/06/18 13:22:30;;;;;;;5.60;3.13;;;11.60;99.90;;;;;;5014999;28;20040;-71
2022/06/18 13:28:13;;;;;;;7.10;2.95;;;11.50;99.90;;;;;;5014424;28;20026;-70
2022/06/18 13:31:12;;;;;;;6.90;3.45;;;11.50;99.90;;;;;;5014574;28;20022;-71
2022/06/18 13:34:32;;;;;;;5.07;3.20;;;11.50;99.90;;;;;;5014452;28;20030;-70
2022/06/18 13:37:23;;;;;;;7.63;3.25;;;11.40;99.90;;;;;;4997283;28;20048;-70
2022/06/18 13:40:18;;;;;;;4.78;3.10;;;11.40;99.90;;;;;;5014207;28;20028;-70
2022/06/18 13:43:14;;;;;;;6.00;3.17;;;11.40;99.90;;;;;;5014106;28;20076;-70
2022/06/18 13:46:00;;;;;;;6.35;3.28;;;11.30;99.90;;;;;;5012702;28;20022;-70